Página principal
METAR-TAF:

METAR-TAF

Aeroportos :

Aeroporto Internacional de Foz do Iguaçu

Foz do Iguaçu, Paraná, Brasil

latitude: 25-31S, longitude: 054-35W, altura: 180 m

Observação actual do tempo

O boletim foi feito há 1 hora e 7 minutos, às 09:00 UTC
Vento 9 kt de es-sudeste
Temperatura 15°C
Humidade 88%
Pressão 1020 hPa
Visibilidade 10 km ou mais
sem nuvens abaixo de 1500 metros e sem cumulonimbus

METAR: SBFI 180900Z 11009KT CAVOK 15/13 Q1020

Hora: 07:07 (10:07 UTC)

Previsão

O boletim foi feito há 7 horas e 7 minutos, às 03:00 UTC
Previsão válida de 18 às 06 UTC a 19 às 06 UTC
Vento 5 kt de es-sudeste
Visibilidade 10 km ou mais
sem nuvens abaixo de 1500 metros e sem cumulonimbus
Tornando-se
de 18 às 16 UTC a 18 às 18 UTC
Vento 8 kt de nor-nordeste
Tornando-se
de 19 às 02 UTC a 19 às 04 UTC
Vento 5 kt de es-sudeste

TAF: SBFI 180300Z 1806/1906 11005KT CAVOK TN14/1808Z TX28/1818Z BECMG 1816/1818 03008KT BECMG 1902/1904 11005KT RMK PER

Observações e previsões do tempo de mais de 4000 aeroportos (mensagens METAR e TAF).

As estações disponíveis são os pontos amarelos e vermelhos sobre o mapa.

Mova o rato sobre o mapa para ver o nome da estação.

Depois clique no ponto para visualizar as observações e previsões meteorológicas.

Para alterar o mapa : clique nos botões verdes com uma cruz preta para aumentar o zoom; no botão verde com uma pitada de zoom; ou nas setas verdes para mapas adjacentes.


METAR-TAF: